Date,TemperatureHighF,TemperatureAvgF,TemperatureLowF,DewpointHighF,DewpointAvgF,DewpointLowF,HumidityHigh,HumidityAvg,HumidityLow,PressureMaxIn,PressureMinIn,WindSpeedMaxMPH,WindSpeedAvgMPH,GustSpeedMaxMPH,PrecipitationSumIn
2013-6-1,66.0,61.6,56.8,65.5,55.8,51.0,99,82,70,30.07,29.76,18,9,0,0.00
2013-6-2,64.8,57.5,49.3,52.6,50.3,47.3,99,78,56,30.19,30.08,14,7,0,0.00
2013-6-3,73.6,61.7,45.9,55.8,51.7,45.6,99,72,50,30.14,29.95,18,8,0,0.00
2013-6-4,75.7,66.4,60.1,66.3,60.2,54.4,89,81,70,30.04,29.95,21,11,0,0.00
2013-6-5,69.6,63.7,58.3,65.0,62.4,58.0,99,96,85,30.05,29.99,10,4,0,1.10
2013-6-6,75.2,64.6,52.5,59.2,56.2,52.2,99,77,53,30.03,29.97,11,4,0,0.00
2013-6-7,75.9,63.3,53.6,57.6,54.3,51.2,99,75,43,30.07,29.96,15,4,0,0.00
2013-6-8,77.9,66.7,54.1,62.8,56.6,50.8,99,72,50,29.99,29.78,20,8,0,0.62
2013-6-9,70.2,65.3,60.4,65.9,61.4,59.6,99,88,73,29.87,29.80,14,6,0,0.30
2013-6-10,83.8,70.2,60.6,67.5,62.9,58.2,94,79,54,29.95,29.84,10,5,0,0.00
2013-6-11,91.8,78.1,68.5,70.0,65.8,63.2,85,67,42,29.89,29.76,22,7,0,0.00
2013-6-12,95.4,82.7,68.2,73.0,69.1,57.3,80,65,46,30.01,29.78,19,9,0,0.00
2013-6-13,84.4,70.7,60.3,63.4,59.0,54.6,90,68,45,30.13,29.96,17,6,0,0.01
2013-6-14,84.7,73.2,61.9,68.9,64.4,59.7,93,75,56,30.10,29.91,21,9,0,0.00
2013-6-15,78.6,69.3,66.0,71.9,61.9,-99.9,99,83,73,30.02,29.89,19,-20,0,0.34
2013-6-16,84.4,72.7,63.1,73.3,68.6,62.8,99,88,67,29.96,29.89,8,2,0,0.02
2013-6-17,90.0,76.0,66.2,73.3,67.8,62.8,99,79,45,29.96,29.89,7,3,0,0.00
2013-6-18,85.8,73.2,62.8,68.3,63.7,58.2,99,75,46,30.03,29.93,14,3,0,0.19
2013-6-19,85.1,74.4,61.7,68.0,65.1,61.4,99,75,55,30.00,29.88,14,6,0,0.00
2013-6-20,88.0,79.2,68.4,74.3,70.0,65.6,92,74,60,29.95,29.83,21,10,0,0.00
2013-6-21,92.8,82.1,75.7,77.2,72.6,70.3,87,74,56,29.92,29.82,16,9,0,0.00
2013-6-22,91.8,82.5,71.6,75.7,70.4,67.1,89,68,52,29.95,29.79,17,7,0,0.00
2013-6-23,81.9,75.1,66.2,73.1,69.4,62.7,93,83,69,29.94,29.73,22,8,0,0.15
2013-6-24,84.0,76.1,72.1,75.5,71.1,69.1,94,85,67,29.90,29.74,16,6,0,0.87
2013-6-25,88.3,80.6,73.8,76.3,71.3,65.8,84,73,65,29.81,29.70,18,7,0,0.00
2013-6-26,95.0,83.2,71.1,76.1,71.9,66.8,99,71,44,29.90,29.65,14,5,0,0.00
2013-6-27,84.0,73.5,64.9,74.9,69.9,64.6,99,89,69,30.01,29.89,8,2,0,0.05
2013-6-28,86.7,76.6,65.7,68.8,63.1,56.5,99,67,37,29.95,29.84,18,6,0,0.01
2013-6-29,80.4,70.4,60.8,66.4,59.5,55.6,89,69,49,29.94,29.83,18,8,0,0.02
2013-6-30,79.5,69.2,58.1,60.5,56.9,52.1,90,66,48,30.10,29.94,14,6,0,0.00